sensor_id;sensor_type;location;lat;lon;timestamp;pressure;altitude;pressure_sealevel;temperature;humidity
62708;BME280;48769;51.624;5.886;2023-04-22T00:02:19;100691.38;;;9.16;100.00
62708;BME280;48769;51.624;5.886;2023-04-22T00:04:47;100687.19;;;9.11;100.00
62708;BME280;48769;51.624;5.886;2023-04-22T00:07:14;100694.31;;;9.09;100.00
62708;BME280;48769;51.624;5.886;2023-04-22T00:09:40;100687.06;;;9.15;100.00
62708;BME280;48769;51.624;5.886;2023-04-22T00:12:06;100687.19;;;9.11;100.00
62708;BME280;48769;51.624;5.886;2023-04-22T00:14:31;100682.94;;;9.09;100.00
62708;BME280;48769;51.624;5.886;2023-04-22T00:16:56;100688.34;;;9.06;100.00
62708;BME280;48769;51.624;5.886;2023-04-22T00:19:22;100680.53;;;9.04;100.00
62708;BME280;48769;51.624;5.886;2023-04-22T00:21:48;100676.25;;;9.02;100.00
62708;BME280;48769;51.624;5.886;2023-04-22T00:24:13;100672.91;;;8.98;100.00
62708;BME280;48769;51.624;5.886;2023-04-22T00:26:38;100680.66;;;9.01;100.00
62708;BME280;48769;51.624;5.886;2023-04-22T00:29:04;100674.41;;;9.04;100.00
62708;BME280;48769;51.624;5.886;2023-04-22T00:31:29;100671.81;;;9.02;100.00
62708;BME280;48769;51.624;5.886;2023-04-22T00:33:54;100672.69;;;9.03;100.00
62708;BME280;48769;51.624;5.886;2023-04-22T00:36:20;100671.25;;;8.96;100.00
62708;BME280;48769;51.624;5.886;2023-04-22T00:38:48;100675.69;;;8.95;100.00
62708;BME280;48769;51.624;5.886;2023-04-22T00:41:16;100661.72;;;8.93;100.00
62708;BME280;48769;51.624;5.886;2023-04-22T00:43:42;100661.88;;;8.90;100.00
62708;BME280;48769;51.624;5.886;2023-04-22T00:46:08;100661.00;;;8.89;100.00
62708;BME280;48769;51.624;5.886;2023-04-22T00:48:35;100664.50;;;8.90;100.00
62708;BME280;48769;51.624;5.886;2023-04-22T00:51:01;100659.22;;;8.90;100.00
62708;BME280;48769;51.624;5.886;2023-04-22T00:53:26;100661.00;;;8.89;100.00
62708;BME280;48769;51.624;5.886;2023-04-22T00:55:51;100666.38;;;8.88;100.00
62708;BME280;48769;51.624;5.886;2023-04-22T00:58:21;100664.03;;;8.82;100.00
62708;BME280;48769;51.624;5.886;2023-04-22T01:00:47;100668.03;;;8.72;100.00
62708;BME280;48769;51.624;5.886;2023-04-22T01:03:13;100666.44;;;8.68;100.00
62708;BME280;48769;51.624;5.886;2023-04-22T01:05:39;100669.72;;;8.73;100.00
62708;BME280;48769;51.624;5.886;2023-04-22T01:08:04;100666.00;;;8.77;100.00
62708;BME280;48769;51.624;5.886;2023-04-22T01:10:30;100659.88;;;8.76;100.00
62708;BME280;48769;51.624;5.886;2023-04-22T01:12:55;100661.75;;;8.74;100.00
62708;BME280;48769;51.624;5.886;2023-04-22T01:15:20;100657.41;;;8.73;100.00
62708;BME280;48769;51.624;5.886;2023-04-22T01:17:46;100664.31;;;8.76;100.00
62708;BME280;48769;51.624;5.886;2023-04-22T01:20:11;100660.59;;;8.80;100.00
62708;BME280;48769;51.624;5.886;2023-04-22T01:22:43;100649.16;;;8.81;100.00
62708;BME280;48769;51.624;5.886;2023-04-22T01:25:10;100646.38;;;8.84;100.00
62708;BME280;48769;51.624;5.886;2023-04-22T01:27:36;100642.66;;;8.88;100.00
62708;BME280;48769;51.624;5.886;2023-04-22T01:30:02;100647.13;;;8.86;100.00
62708;BME280;48769;51.624;5.886;2023-04-22T01:32:28;100646.19;;;8.87;100.00
62708;BME280;48769;51.624;5.886;2023-04-22T01:34:55;100646.06;;;8.90;100.00
62708;BME280;48769;51.624;5.886;2023-04-22T01:37:20;100647.78;;;8.91;100.00
62708;BME280;48769;51.624;5.886;2023-04-22T01:39:46;100645.22;;;8.89;100.00
62708;BME280;48769;51.624;5.886;2023-04-22T01:42:12;100646.06;;;8.90;100.00
62708;BME280;48769;51.624;5.886;2023-04-22T01:44:37;100638.25;;;8.88;100.00
62708;BME280;48769;51.624;5.886;2023-04-22T01:47:03;100644.22;;;8.92;100.00
62708;BME280;48769;51.624;5.886;2023-04-22T01:49:29;100634.63;;;8.91;100.00
62708;BME280;48769;51.624;5.886;2023-04-22T01:51:56;100642.53;;;8.91;100.00
62708;BME280;48769;51.624;5.886;2023-04-22T01:54:21;100634.75;;;8.88;100.00
62708;BME280;48769;51.624;5.886;2023-04-22T01:56:52;100635.75;;;8.85;100.00
62708;BME280;48769;51.624;5.886;2023-04-22T01:59:18;100636.00;;;8.81;100.00
62708;BME280;48769;51.624;5.886;2023-04-22T02:01:45;100634.13;;;8.83;100.00
62708;BME280;48769;51.624;5.886;2023-04-22T02:04:10;100635.19;;;8.79;100.00
62708;BME280;48769;51.624;5.886;2023-04-22T02:06:35;100629.84;;;8.80;100.00
62708;BME280;48769;51.624;5.886;2023-04-22T02:09:01;100639.38;;;8.83;100.00
62708;BME280;48769;51.624;5.886;2023-04-22T02:11:26;100633.03;;;8.87;100.00
62708;BME280;48769;51.624;5.886;2023-04-22T02:13:51;100636.53;;;8.87;100.00
62708;BME280;48769;51.624;5.886;2023-04-22T02:16:17;100641.72;;;8.89;100.00
62708;BME280;48769;51.624;5.886;2023-04-22T02:18:42;100638.25;;;8.88;100.00
62708;BME280;48769;51.624;5.886;2023-04-22T02:21:07;100635.66;;;8.87;100.00
62708;BME280;48769;51.624;5.886;2023-04-22T02:23:34;100632.56;;;8.79;100.00
62708;BME280;48769;51.624;5.886;2023-04-22T02:26:00;100630.72;;;8.81;100.00
62708;BME280;48769;51.624;5.886;2023-04-22T02:28:25;100623.72;;;8.80;100.00
62708;BME280;48769;51.624;5.886;2023-04-22T02:30:50;100627.16;;;8.82;100.00
62708;BME280;48769;51.624;5.886;2023-04-22T02:33:16;100621.88;;;8.82;100.00
62708;BME280;48769;51.624;5.886;2023-04-22T02:35:41;100620.38;;;8.76;100.00
62708;BME280;48769;51.624;5.886;2023-04-22T02:38:06;100629.28;;;8.74;100.00
62708;BME280;48769;51.624;5.886;2023-04-22T02:40:32;100623.72;;;8.80;100.00
62708;BME280;48769;51.624;5.886;2023-04-22T02:42:58;100620.94;;;8.83;100.00
62708;BME280;48769;51.624;5.886;2023-04-22T02:45:24;100621.72;;;8.85;100.00
62708;BME280;48769;51.624;5.886;2023-04-22T02:47:49;100611.06;;;8.88;100.00
62708;BME280;48769;51.624;5.886;2023-04-22T02:50:15;100618.03;;;8.89;100.00
62708;BME280;48769;51.624;5.886;2023-04-22T02:52:40;100610.91;;;8.91;100.00
62708;BME280;48769;51.624;5.886;2023-04-22T02:55:06;100612.59;;;8.92;100.00
62708;BME280;48769;51.624;5.886;2023-04-22T02:57:32;100608.19;;;8.93;100.00
62708;BME280;48769;51.624;5.886;2023-04-22T02:59:57;100610.13;;;8.89;100.00
62708;BME280;48769;51.624;5.886;2023-04-22T03:02:22;100607.78;;;8.83;100.00
62708;BME280;48769;51.624;5.886;2023-04-22T03:04:47;100609.00;;;8.76;100.00
62708;BME280;48769;51.624;5.886;2023-04-22T03:07:13;100607.22;;;8.76;100.00
62708;BME280;48769;51.624;5.886;2023-04-22T03:09:38;100601.88;;;8.78;100.00
62708;BME280;48769;51.624;5.886;2023-04-22T03:12:04;100601.75;;;8.81;100.00
62708;BME280;48769;51.624;5.886;2023-04-22T03:14:29;100593.84;;;8.81;100.00
62708;BME280;48769;51.624;5.886;2023-04-22T03:16:54;100598.31;;;8.79;100.00
62708;BME280;48769;51.624;5.886;2023-04-22T03:19:20;100594.84;;;8.78;100.00
62708;BME280;48769;51.624;5.886;2023-04-22T03:21:45;100592.19;;;8.78;100.00
62708;BME280;48769;51.624;5.886;2023-04-22T03:24:11;100589.41;;;8.81;100.00
62708;BME280;48769;51.624;5.886;2023-04-22T03:26:36;100606.38;;;8.76;100.00
62708;BME280;48769;51.624;5.886;2023-04-22T03:29:02;100590.41;;;8.79;100.00
62708;BME280;48769;51.624;5.886;2023-04-22T03:31:27;100588.50;;;8.82;100.00
62708;BME280;48769;51.624;5.886;2023-04-22T03:33:52;100588.44;;;8.84;100.00
62708;BME280;48769;51.624;5.886;2023-04-22T03:36:18;100582.22;;;8.85;100.00
62708;BME280;48769;51.624;5.886;2023-04-22T03:38:43;100577.72;;;8.87;100.00
62708;BME280;48769;51.624;5.886;2023-04-22T03:41:08;100576.16;;;8.83;100.00
62708;BME280;48769;51.624;5.886;2023-04-22T03:43:34;100569.06;;;8.85;100.00
62708;BME280;48769;51.624;5.886;2023-04-22T03:45:59;100563.78;;;8.85;100.00
62708;BME280;48769;51.624;5.886;2023-04-22T03:48:24;100565.34;;;8.89;100.00
62708;BME280;48769;51.624;5.886;2023-04-22T03:50:50;100567.81;;;8.92;100.00
62708;BME280;48769;51.624;5.886;2023-04-22T03:53:15;100558.06;;;8.94;100.00
62708;BME280;48769;51.624;5.886;2023-04-22T03:55:41;100568.53;;;8.96;100.00
62708;BME280;48769;51.624;5.886;2023-04-22T03:58:06;100557.72;;;8.83;100.00
62708;BME280;48769;51.624;5.886;2023-04-22T04:00:31;100554.19;;;8.84;100.00
62708;BME280;48769;51.624;5.886;2023-04-22T04:02:57;100558.66;;;8.82;100.00
62708;BME280;48769;51.624;5.886;2023-04-22T04:05:22;100562.38;;;8.78;100.00
62708;BME280;48769;51.624;5.886;2023-04-22T04:07:48;100551.84;;;8.78;100.00
62708;BME280;48769;51.624;5.886;2023-04-22T04:10:13;100548.19;;;8.80;100.00
62708;BME280;48769;51.624;5.886;2023-04-22T04:12:38;100552.75;;;8.77;100.00
62708;BME280;48769;51.624;5.886;2023-04-22T04:15:04;100557.31;;;8.73;100.00
62708;BME280;48769;51.624;5.886;2023-04-22T04:17:30;100548.72;;;8.70;100.00
62708;BME280;48769;51.624;5.886;2023-04-22T04:19:55;100551.19;;;8.73;100.00
62708;BME280;48769;51.624;5.886;2023-04-22T04:22:20;100544.09;;;8.75;100.00
62708;BME280;48769;51.624;5.886;2023-04-22T04:24:46;100546.44;;;8.81;100.00
62708;BME280;48769;51.624;5.886;2023-04-22T04:27:12;100547.19;;;8.83;100.00
62708;BME280;48769;51.624;5.886;2023-04-22T04:29:38;100542.78;;;8.83;100.00
62708;BME280;48769;51.624;5.886;2023-04-22T04:32:06;100536.66;;;8.83;100.00
62708;BME280;48769;51.624;5.886;2023-04-22T04:34:32;100536.59;;;8.84;100.00
62708;BME280;48769;51.624;5.886;2023-04-22T04:36:58;100537.44;;;8.85;100.00
62708;BME280;48769;51.624;5.886;2023-04-22T04:39:24;100537.44;;;8.85;100.00
62708;BME280;48769;51.624;5.886;2023-04-22T04:41:50;100532.88;;;8.88;100.00
62708;BME280;48769;51.624;5.886;2023-04-22T04:44:19;100531.88;;;8.91;100.00
62708;BME280;48769;51.624;5.886;2023-04-22T04:46:44;100537.16;;;8.91;100.00
62708;BME280;48769;51.624;5.886;2023-04-22T04:49:10;100532.94;;;8.87;100.00
62708;BME280;48769;51.624;5.886;2023-04-22T04:51:38;100537.28;;;8.88;100.00
62708;BME280;48769;51.624;5.886;2023-04-22T04:54:04;100539.69;;;8.93;100.00
62708;BME280;48769;51.624;5.886;2023-04-22T04:56:29;100541.31;;;8.95;100.00
62708;BME280;48769;51.624;5.886;2023-04-22T04:58:55;100528.94;;;8.97;100.00
62708;BME280;48769;51.624;5.886;2023-04-22T05:01:21;100538.53;;;8.98;100.00
62708;BME280;48769;51.624;5.886;2023-04-22T05:03:46;100535.59;;;9.04;100.00
62708;BME280;48769;51.624;5.886;2023-04-22T05:06:12;100534.50;;;9.08;100.00
62708;BME280;48769;51.624;5.886;2023-04-22T05:08:37;100534.34;;;9.11;100.00
62708;BME280;48769;51.624;5.886;2023-04-22T05:11:02;100535.34;;;9.09;100.00
62708;BME280;48769;51.624;5.886;2023-04-22T05:13:28;100538.63;;;9.14;100.00
62708;BME280;48769;51.624;5.886;2023-04-22T05:15:53;100534.22;;;9.15;100.00
62708;BME280;48769;51.624;5.886;2023-04-22T05:18:19;100546.28;;;9.19;100.00
62708;BME280;48769;51.624;5.886;2023-04-22T05:20:44;100541.03;;;9.19;100.00
62708;BME280;48769;51.624;5.886;2023-04-22T05:23:10;100539.31;;;9.18;100.00
62708;BME280;48769;51.624;5.886;2023-04-22T05:25:35;100541.81;;;9.21;100.00
62708;BME280;48769;51.624;5.886;2023-04-22T05:28:04;100545.91;;;9.26;100.00
62708;BME280;48769;51.624;5.886;2023-04-22T05:30:29;100550.25;;;9.27;100.00
62708;BME280;48769;51.624;5.886;2023-04-22T05:32:54;100543.97;;;9.30;100.00
62708;BME280;48769;51.624;5.886;2023-04-22T05:35:20;100537.81;;;9.29;100.00
62708;BME280;48769;51.624;5.886;2023-04-22T05:37:45;100545.59;;;9.32;100.00
62708;BME280;48769;51.624;5.886;2023-04-22T05:40:11;100538.63;;;9.31;100.00
62708;BME280;48769;51.624;5.886;2023-04-22T05:42:36;100540.94;;;9.38;100.00
62708;BME280;48769;51.624;5.886;2023-04-22T05:45:01;100537.75;;;9.31;100.00
62708;BME280;48769;51.624;5.886;2023-04-22T05:47:29;100536.75;;;9.33;100.00
62708;BME280;48769;51.624;5.886;2023-04-22T05:49:54;100529.38;;;9.40;100.00
62708;BME280;48769;51.624;5.886;2023-04-22T05:52:20;100536.03;;;9.47;100.00
62708;BME280;48769;51.624;5.886;2023-04-22T05:54:45;100538.28;;;9.55;100.00
62708;BME280;48769;51.624;5.886;2023-04-22T05:57:11;100545.66;;;9.66;100.00
62708;BME280;48769;51.624;5.886;2023-04-22T05:59:36;100540.06;;;9.72;100.00
62708;BME280;48769;51.624;5.886;2023-04-22T06:02:02;100551.81;;;9.82;100.00
62708;BME280;48769;51.624;5.886;2023-04-22T06:04:27;100552.88;;;9.95;100.00
62708;BME280;48769;51.624;5.886;2023-04-22T06:06:53;100558.66;;;10.02;100.00
62708;BME280;48769;51.624;5.886;2023-04-22T06:09:19;100549.66;;;10.22;100.00
62708;BME280;48769;51.624;5.886;2023-04-22T06:11:45;100555.06;;;10.36;100.00
62708;BME280;48769;51.624;5.886;2023-04-22T06:14:10;100555.22;;;10.49;100.00
62708;BME280;48769;51.624;5.886;2023-04-22T06:16:37;100547.41;;;10.63;100.00
62708;BME280;48769;51.624;5.886;2023-04-22T06:19:02;100547.56;;;10.76;100.00
62708;BME280;48769;51.624;5.886;2023-04-22T06:21:28;100537.16;;;10.73;100.00
62708;BME280;48769;51.624;5.886;2023-04-22T06:23:53;100531.03;;;11.03;100.00
62708;BME280;48769;51.624;5.886;2023-04-22T06:26:18;100530.72;;;11.23;100.00
62708;BME280;48769;51.624;5.886;2023-04-22T06:28:44;100534.31;;;11.22;100.00
62708;BME280;48769;51.624;5.886;2023-04-22T06:31:09;100536.38;;;11.17;100.00
62708;BME280;48769;51.624;5.886;2023-04-22T06:33:35;100538.09;;;11.32;100.00
62708;BME280;48769;51.624;5.886;2023-04-22T06:36:00;100529.56;;;11.57;100.00
62708;BME280;48769;51.624;5.886;2023-04-22T06:38:25;100519.94;;;11.70;100.00
62708;BME280;48769;51.624;5.886;2023-04-22T06:40:51;100514.72;;;11.69;100.00
62708;BME280;48769;51.624;5.886;2023-04-22T06:43:16;100509.41;;;11.69;100.00
62708;BME280;48769;51.624;5.886;2023-04-22T06:45:41;100514.59;;;11.56;100.00
62708;BME280;48769;51.624;5.886;2023-04-22T06:48:07;100513.50;;;11.75;100.00
62708;BME280;48769;51.624;5.886;2023-04-22T06:50:32;100519.09;;;11.84;100.00
62708;BME280;48769;51.624;5.886;2023-04-22T06:52:57;100521.16;;;12.08;100.00
62708;BME280;48769;51.624;5.886;2023-04-22T06:55:23;100527.50;;;12.05;100.00
62708;BME280;48769;51.624;5.886;2023-04-22T06:57:49;100519.81;;;12.15;100.00
62708;BME280;48769;51.624;5.886;2023-04-22T07:00:15;100520.19;;;12.23;100.00
62708;BME280;48769;51.624;5.886;2023-04-22T07:02:40;100514.25;;;12.47;100.00
62708;BME280;48769;51.624;5.886;2023-04-22T07:05:06;100513.09;;;12.65;100.00
62708;BME280;48769;51.624;5.886;2023-04-22T07:07:31;100506.94;;;13.04;100.00
62708;BME280;48769;51.624;5.886;2023-04-22T07:09:56;100508.84;;;13.15;100.00
62708;BME280;48769;51.624;5.886;2023-04-22T07:12:22;100512.84;;;13.48;100.00
62708;BME280;48769;51.624;5.886;2023-04-22T07:14:49;100504.88;;;13.73;100.00
62708;BME280;48769;51.624;5.886;2023-04-22T07:17:15;100509.25;;;14.24;100.00
62708;BME280;48769;51.624;5.886;2023-04-22T07:19:43;100511.44;;;14.43;100.00
62708;BME280;48769;51.624;5.886;2023-04-22T07:22:09;100506.81;;;14.58;100.00
62708;BME280;48769;51.624;5.886;2023-04-22T07:24:34;100513.03;;;14.93;100.00
62708;BME280;48769;51.624;5.886;2023-04-22T07:26:59;100507.44;;;15.78;100.00
62708;BME280;48769;51.624;5.886;2023-04-22T07:29:26;100494.06;;;16.67;100.00
62708;BME280;48769;51.624;5.886;2023-04-22T07:31:54;100498.34;;;17.74;100.00
62708;BME280;48769;51.624;5.886;2023-04-22T07:34:19;100483.44;;;18.81;100.00
62708;BME280;48769;51.624;5.886;2023-04-22T07:36:45;100476.09;;;19.22;100.00
62708;BME280;48769;51.624;5.886;2023-04-22T07:39:10;100482.44;;;19.78;100.00
62708;BME280;48769;51.624;5.886;2023-04-22T07:41:35;100471.59;;;20.07;100.00
62708;BME280;48769;51.624;5.886;2023-04-22T07:44:01;100466.44;;;19.96;100.00
62708;BME280;48769;51.624;5.886;2023-04-22T07:46:28;100476.69;;;18.87;100.00
62708;BME280;48769;51.624;5.886;2023-04-22T07:48:53;100498.19;;;17.96;100.00
62708;BME280;48769;51.624;5.886;2023-04-22T07:51:18;100504.97;;;17.49;100.00
62708;BME280;48769;51.624;5.886;2023-04-22T07:53:44;100506.72;;;17.60;100.00
62708;BME280;48769;51.624;5.886;2023-04-22T07:56:09;100500.47;;;18.01;100.00
62708;BME280;48769;51.624;5.886;2023-04-22T07:58:35;100491.88;;;19.82;100.00
62708;BME280;48769;51.624;5.886;2023-04-22T08:01:00;100490.88;;;20.11;100.00
62708;BME280;48769;51.624;5.886;2023-04-22T08:03:26;100492.72;;;20.10;100.00
62708;BME280;48769;51.624;5.886;2023-04-22T08:05:51;100486.66;;;20.08;100.00
62708;BME280;48769;51.624;5.886;2023-04-22T08:08:17;100493.75;;;19.62;100.00
62708;BME280;48769;51.624;5.886;2023-04-22T08:10:42;100490.78;;;18.79;100.00
62708;BME280;48769;51.624;5.886;2023-04-22T08:13:07;100483.72;;;18.78;100.00
62708;BME280;48769;51.624;5.886;2023-04-22T08:15:32;100473.09;;;19.45;100.00
62708;BME280;48769;51.624;5.886;2023-04-22T08:17:58;100473.84;;;19.27;100.00
62708;BME280;48769;51.624;5.886;2023-04-22T08:20:23;100465.69;;;19.00;100.00
62708;BME280;48769;51.624;5.886;2023-04-22T08:22:50;100474.44;;;19.02;100.00
62708;BME280;48769;51.624;5.886;2023-04-22T08:25:21;100462.59;;;18.95;100.00
62708;BME280;48769;51.624;5.886;2023-04-22T08:27:46;100471.06;;;19.00;100.00
62708;BME280;48769;51.624;5.886;2023-04-22T08:30:12;100459.88;;;19.14;100.00
62708;BME280;48769;51.624;5.886;2023-04-22T08:32:37;100448.75;;;19.28;100.00
62708;BME280;48769;51.624;5.886;2023-04-22T08:35:03;100456.03;;;19.36;100.00
62708;BME280;48769;51.624;5.886;2023-04-22T08:37:28;100443.78;;;19.33;100.00
62708;BME280;48769;51.624;5.886;2023-04-22T08:39:54;100440.75;;;19.56;100.00
62708;BME280;48769;51.624;5.886;2023-04-22T08:42:19;100439.66;;;19.49;100.00
62708;BME280;48769;51.624;5.886;2023-04-22T08:44:45;100439.91;;;19.65;100.00
62708;BME280;48769;51.624;5.886;2023-04-22T08:47:12;100441.81;;;19.82;100.00
62708;BME280;48769;51.624;5.886;2023-04-22T08:49:39;100439.34;;;20.17;100.00
62708;BME280;48769;51.624;5.886;2023-04-22T08:52:04;100428.03;;;19.68;100.00
62708;BME280;48769;51.624;5.886;2023-04-22T08:54:30;100418.88;;;19.70;100.00
62708;BME280;48769;51.624;5.886;2023-04-22T08:56:58;100425.78;;;19.63;100.00
62708;BME280;48769;51.624;5.886;2023-04-22T08:59:26;100430.66;;;20.05;100.00
62708;BME280;48769;51.624;5.886;2023-04-22T09:01:52;100417.53;;;19.84;100.00
62708;BME280;48769;51.624;5.886;2023-04-22T09:04:19;100420.03;;;19.85;100.00
62708;BME280;48769;51.624;5.886;2023-04-22T09:06:44;100414.09;;;19.92;100.00
62708;BME280;48769;51.624;5.886;2023-04-22T09:09:10;100415.06;;;20.18;100.00
62708;BME280;48769;51.624;5.886;2023-04-22T09:11:35;100400.59;;;19.83;100.00
62708;BME280;48769;51.624;5.886;2023-04-22T09:14:02;100404.94;;;19.57;100.00
62708;BME280;48769;51.624;5.886;2023-04-22T09:16:32;100397.25;;;19.72;100.00
62708;BME280;48769;51.624;5.886;2023-04-22T09:18:58;100391.00;;;20.26;100.00
62708;BME280;48769;51.624;5.886;2023-04-22T09:21:27;100386.31;;;21.08;100.00
62708;BME280;48769;51.624;5.886;2023-04-22T09:23:54;100381.72;;;22.03;100.00
62708;BME280;48769;51.624;5.886;2023-04-22T09:26:24;100374.38;;;21.29;100.00
62708;BME280;48769;51.624;5.886;2023-04-22T09:28:52;100386.63;;;21.31;100.00
62708;BME280;48769;51.624;5.886;2023-04-22T09:31:18;100390.63;;;21.01;100.00
62708;BME280;48769;51.624;5.886;2023-04-22T09:33:49;100389.34;;;20.61;100.00
62708;BME280;48769;51.624;5.886;2023-04-22T09:36:29;100397.34;;;20.43;100.00
62708;BME280;48769;51.624;5.886;2023-04-22T09:38:58;100387.84;;;20.67;100.00
62708;BME280;48769;51.624;5.886;2023-04-22T09:41:31;100385.56;;;21.24;100.00
62708;BME280;48769;51.624;5.886;2023-04-22T09:43:58;100387.75;;;20.76;100.00
62708;BME280;48769;51.624;5.886;2023-04-22T09:46:25;100389.41;;;21.21;100.00
62708;BME280;48769;51.624;5.886;2023-04-22T09:48:51;100394.13;;;21.19;100.00
62708;BME280;48769;51.624;5.886;2023-04-22T09:51:18;100384.75;;;21.32;100.00
62708;BME280;48769;51.624;5.886;2023-04-22T09:53:44;100372.28;;;21.99;100.00
62708;BME280;48769;51.624;5.886;2023-04-22T09:56:10;100354.91;;;22.69;100.00
62708;BME280;48769;51.624;5.886;2023-04-22T09:58:39;100357.59;;;22.69;100.00
62708;BME280;48769;51.624;5.886;2023-04-22T10:01:04;100360.31;;;22.52;100.00
62708;BME280;48769;51.624;5.886;2023-04-22T10:03:30;100354.75;;;22.46;100.00
62708;BME280;48769;51.624;5.886;2023-04-22T10:05:59;100352.72;;;22.39;100.00
62708;BME280;48769;51.624;5.886;2023-04-22T10:08:25;100351.03;;;22.63;100.00
62708;BME280;48769;51.624;5.886;2023-04-22T10:10:52;100361.25;;;22.84;100.00
62708;BME280;48769;51.624;5.886;2023-04-22T10:13:17;100371.56;;;22.39;100.00
62708;BME280;48769;51.624;5.886;2023-04-22T10:15:52;100368.59;;;21.92;100.00
62708;BME280;48769;51.624;5.886;2023-04-22T10:18:27;100369.84;;;22.22;100.00
62708;BME280;48769;51.624;5.886;2023-04-22T10:20:55;100373.75;;;22.36;100.00
62708;BME280;48769;51.624;5.886;2023-04-22T10:23:23;100366.59;;;21.94;100.00
62708;BME280;48769;51.624;5.886;2023-04-22T10:25:52;100369.88;;;21.80;100.00
62708;BME280;48769;51.624;5.886;2023-04-22T10:28:19;100371.59;;;21.81;100.00
62708;BME280;48769;51.624;5.886;2023-04-22T10:30:45;100374.66;;;21.94;100.00
62708;BME280;48769;51.624;5.886;2023-04-22T10:38:33;100375.50;;;21.94;95.26
62708;BME280;48769;51.624;5.886;2023-04-22T10:40:58;100368.25;;;21.95;94.02
62708;BME280;48769;51.624;5.886;2023-04-22T10:46:05;100380.09;;;22.19;93.24
62708;BME280;48769;51.624;5.886;2023-04-22T10:48:46;100371.31;;;22.00;89.08
62708;BME280;48769;51.624;5.886;2023-04-22T10:51:45;100369.88;;;21.72;89.02
62708;BME280;48769;51.624;5.886;2023-04-22T10:57:07;100380.56;;;21.29;88.85
62708;BME280;48769;51.624;5.886;2023-04-22T10:59:54;100374.16;;;20.96;88.34
62708;BME280;48769;51.624;5.886;2023-04-22T11:02:21;100377.72;;;21.05;90.35
62708;BME280;48769;51.624;5.886;2023-04-22T11:04:47;100375.75;;;21.07;88.36
62708;BME280;48769;51.624;5.886;2023-04-22T11:07:13;100356.31;;;21.13;85.13
62708;BME280;48769;51.624;5.886;2023-04-22T11:09:48;100369.34;;;20.82;88.58
62708;BME280;48769;51.624;5.886;2023-04-22T11:14:58;100370.81;;;20.76;89.62
62708;BME280;48769;51.624;5.886;2023-04-22T11:17:26;100362.31;;;21.07;90.68
62708;BME280;48769;51.624;5.886;2023-04-22T11:19:52;100357.47;;;21.10;87.63
62708;BME280;48769;51.624;5.886;2023-04-22T11:22:22;100358.19;;;21.20;87.28
62708;BME280;48769;51.624;5.886;2023-04-22T11:24:57;100360.38;;;20.91;85.74
62708;BME280;48769;51.624;5.886;2023-04-22T11:27:26;100365.50;;;20.58;91.08
62708;BME280;48769;51.624;5.886;2023-04-22T11:30:15;100371.59;;;20.50;89.00
62708;BME280;48769;51.624;5.886;2023-04-22T11:32:43;100367.22;;;20.14;90.64
62708;BME280;48769;51.624;5.886;2023-04-22T11:35:13;100369.63;;;19.99;91.94
62708;BME280;48769;51.624;5.886;2023-04-22T11:37:39;100372.78;;;19.84;94.52
62708;BME280;48769;51.624;5.886;2023-04-22T11:40:07;100372.47;;;19.70;95.08
62708;BME280;48769;51.624;5.886;2023-04-22T11:42:34;100381.50;;;19.59;98.26
62708;BME280;48769;51.624;5.886;2023-04-22T11:45:00;100372.91;;;19.65;100.00
62708;BME280;48769;51.624;5.886;2023-04-22T11:47:28;100379.25;;;19.64;98.09
62708;BME280;48769;51.624;5.886;2023-04-22T11:49:55;100366.09;;;19.71;98.31
62708;BME280;48769;51.624;5.886;2023-04-22T11:52:21;100373.00;;;19.73;99.47
62708;BME280;48769;51.624;5.886;2023-04-22T11:54:47;100370.03;;;19.76;96.72
62708;BME280;48769;51.624;5.886;2023-04-22T11:57:12;100368.88;;;19.79;97.53
62708;BME280;48769;51.624;5.886;2023-04-22T11:59:40;100365.97;;;19.62;97.30
62708;BME280;48769;51.624;5.886;2023-04-22T12:02:06;100365.41;;;19.69;99.46
62708;BME280;48769;51.624;5.886;2023-04-22T12:04:39;100358.09;;;19.61;96.60
62708;BME280;48769;51.624;5.886;2023-04-22T12:07:05;100360.06;;;19.59;100.00
62708;BME280;48769;51.624;5.886;2023-04-22T12:09:32;100357.97;;;19.53;96.38
62708;BME280;48769;51.624;5.886;2023-04-22T12:11:57;100360.59;;;19.62;97.51
62708;BME280;48769;51.624;5.886;2023-04-22T12:14:33;100357.22;;;19.70;91.93
62708;BME280;48769;51.624;5.886;2023-04-22T12:17:02;100359.50;;;19.65;93.47
62708;BME280;48769;51.624;5.886;2023-04-22T12:19:29;100357.38;;;19.59;95.59
62708;BME280;48769;51.624;5.886;2023-04-22T12:21:55;100363.97;;;19.74;95.88
62708;BME280;48769;51.624;5.886;2023-04-22T12:24:26;100358.31;;;19.77;94.34
62708;BME280;48769;51.624;5.886;2023-04-22T12:26:52;100360.00;;;19.78;95.47
62708;BME280;48769;51.624;5.886;2023-04-22T12:29:34;100362.72;;;19.69;91.24
62708;BME280;48769;51.624;5.886;2023-04-22T12:31:59;100367.72;;;19.54;94.83
62708;BME280;48769;51.624;5.886;2023-04-22T12:34:25;100364.56;;;19.68;96.12
62708;BME280;48769;51.624;5.886;2023-04-22T12:36:50;100367.06;;;19.79;97.27
62708;BME280;48769;51.624;5.886;2023-04-22T12:39:16;100370.41;;;19.81;95.26
62708;BME280;48769;51.624;5.886;2023-04-22T12:41:41;100375.81;;;19.72;99.30
62708;BME280;48769;51.624;5.886;2023-04-22T12:44:06;100378.19;;;19.47;98.69
62708;BME280;48769;51.624;5.886;2023-04-22T12:46:33;100374.97;;;19.44;100.00
62708;BME280;48769;51.624;5.886;2023-04-22T12:48:58;100380.91;;;19.37;100.00
62708;BME280;48769;51.624;5.886;2023-04-22T12:51:24;100376.72;;;19.25;100.00
62708;BME280;48769;51.624;5.886;2023-04-22T12:53:49;100376.59;;;19.17;100.00
62708;BME280;48769;51.624;5.886;2023-04-22T12:56:15;100386.19;;;19.10;100.00